Valgardena — ICKG — position and weather

sailwx.info

Track history (hours):
 
Tides and Currents Weather Stations Pressure Air Temp Water Temp Dewpoint Dewpoint Depression Visibility Wind Speed Wind Dir Waves Ship Positions

Valgardena

Last reported at 2017-Jan-20 05:33 UTC. Time now 2017-Jan-20 05:46 UTC.
Position N 39°03' E 009°05'.

Length 184 m; draft 7.5 m.

Type: Ship. MMSI: 247243800.

Date/timePositionNaut miles runAvg speedWind from/ knotsBaromVisibWave heightAir tempDewpointWater temp
2017-Jan-20 05:33N 39°03' E 009°05'8 7.8
2017-Jan-20 04:34N 38°55' E 009°04'1212.0
2017-Jan-20 03:33N 38°47' E 008°53'1111.1
2017-Jan-20 02:33N 38°43' E 008°39'11611.6
2017-Jan-19 16:33N 38°12' E 006°17'1212.4
2017-Jan-19 15:33N 38°09' E 006°02'54711.6
2017-Jan-17 16:32N 36°07' W 005°07'1212.7
2017-Jan-17 15:33N 36°07' W 005°23'1 0.2
2017-Jan-17 07:04N 36°08' W 005°22'0 0.0
2017-Jan-17 06:28N 36°08' W 005°22'0 0.0
2017-Jan-17 05:31N 36°08' W 005°22'0 0.0
2017-Jan-17 04:25N 36°08' W 005°22'0 0.0
2017-Jan-17 03:31N 36°08' W 005°22'0 0.0
2017-Jan-17 02:25N 36°08' W 005°22'0 0.0
2017-Jan-17 00:13N 36°08' W 005°22'  
2017-Jan-12 09:25N 36°08' W 005°25'1 0.5
2017-Jan-12 08:05N 36°08' W 005°25'0 0.0
2017-Jan-12 07:29N 36°08' W 005°25'0 0.0
2017-Jan-12 06:32N 36°08' W 005°25'0 0.0
2017-Jan-12 05:29N 36°08' W 005°25'0 0.0
2017-Jan-12 04:32N 36°08' W 005°25'0 0.0
2017-Jan-12 03:29N 36°08' W 005°25'0 0.0
2017-Jan-12 02:29N 36°08' W 005°25'0 0.0
2017-Jan-12 01:32N 36°08' W 005°25'0 0.0
2017-Jan-12 00:29N 36°08' W 005°25'0 0.0
2017-Jan-11 23:32N 36°08' W 005°25'0 0.0
2017-Jan-11 22:29N 36°08' W 005°25'0 0.1
2017-Jan-11 21:32N 36°08' W 005°25'0 0.0
2017-Jan-11 20:23N 36°08' W 005°25'0 0.0
2017-Jan-11 19:29N 36°08' W 005°25'0 0.0
2017-Jan-11 18:29N 36°08' W 005°25'0 0.0
2017-Jan-11 17:11N 36°08' W 005°25'0 0.1
2017-Jan-11 13:17N 36°08' W 005°24'0 0.1
2017-Jan-11 12:32N 36°08' W 005°25'0 0.1
2017-Jan-11 11:29N 36°08' W 005°25'0 0.1
2017-Jan-11 10:32N 36°08' W 005°25'0 0.0
2017-Jan-11 08:05N 36°08' W 005°24'0 0.1
2017-Jan-11 07:08N 36°08' W 005°24'0 0.0
2017-Jan-11 03:29N 36°08' W 005°24'0 0.0
2017-Jan-11 01:32N 36°08' W 005°24'0 0.0
2017-Jan-10 22:32N 36°08' W 005°24'0 0.0
2017-Jan-10 21:32N 36°08' W 005°24'0 0.0
2017-Jan-10 20:26N 36°08' W 005°24'0 0.0
2017-Jan-10 17:32N 36°08' W 005°24'0 0.0
2017-Jan-10 14:14N 36°08' W 005°24'0 0.0
2017-Jan-10 12:14N 36°08' W 005°24'0 0.0
2017-Jan-10 10:14N 36°08' W 005°24'0 0.0
2017-Jan-10 07:08N 36°08' W 005°24'  
Track history (hours):
 
Tides and Currents Weather Stations Pressure Air Temp Water Temp Dewpoint Dewpoint Depression Visibility Wind Speed Wind Dir Waves Ship Positions

Valgardena

Last reported at 2017-Jan-20 05:33 UTC. Time now 2017-Jan-20 05:46 UTC.
Position N 39°03' E 009°05'.

Length 184 m; draft 7.5 m.

Type: Ship. MMSI: 247243800.

Date/timePositionNaut miles runAvg speedWind from/ knotsBaromVisibWave heightAir tempDewpointWater temp
2017-Jan-20 05:33N 39°03' E 009°05'8 7.8
2017-Jan-20 04:34N 38°55' E 009°04'1212.0
2017-Jan-20 03:33N 38°47' E 008°53'1111.1
2017-Jan-20 02:33N 38°43' E 008°39'11611.6
2017-Jan-19 16:33N 38°12' E 006°17'1212.4
2017-Jan-19 15:33N 38°09' E 006°02'54711.6
2017-Jan-17 16:32N 36°07' W 005°07'1212.7
2017-Jan-17 15:33N 36°07' W 005°23'1 0.2
2017-Jan-17 07:04N 36°08' W 005°22'0 0.0
2017-Jan-17 06:28N 36°08' W 005°22'0 0.0
2017-Jan-17 05:31N 36°08' W 005°22'0 0.0
2017-Jan-17 04:25N 36°08' W 005°22'0 0.0
2017-Jan-17 03:31N 36°08' W 005°22'0 0.0
2017-Jan-17 02:25N 36°08' W 005°22'0 0.0
2017-Jan-17 00:13N 36°08' W 005°22'  
2017-Jan-12 09:25N 36°08' W 005°25'1 0.5
2017-Jan-12 08:05N 36°08' W 005°25'0 0.0
2017-Jan-12 07:29N 36°08' W 005°25'0 0.0
2017-Jan-12 06:32N 36°08' W 005°25'0 0.0
2017-Jan-12 05:29N 36°08' W 005°25'0 0.0
2017-Jan-12 04:32N 36°08' W 005°25'0 0.0
2017-Jan-12 03:29N 36°08' W 005°25'0 0.0
2017-Jan-12 02:29N 36°08' W 005°25'0 0.0
2017-Jan-12 01:32N 36°08' W 005°25'0 0.0
2017-Jan-12 00:29N 36°08' W 005°25'0 0.0
2017-Jan-11 23:32N 36°08' W 005°25'0 0.0
2017-Jan-11 22:29N 36°08' W 005°25'0 0.1
2017-Jan-11 21:32N 36°08' W 005°25'0 0.0
2017-Jan-11 20:23N 36°08' W 005°25'0 0.0
2017-Jan-11 19:29N 36°08' W 005°25'0 0.0
2017-Jan-11 18:29N 36°08' W 005°25'0 0.0
2017-Jan-11 17:11N 36°08' W 005°25'0 0.1
2017-Jan-11 13:17N 36°08' W 005°24'0 0.1
2017-Jan-11 12:32N 36°08' W 005°25'0 0.1
2017-Jan-11 11:29N 36°08' W 005°25'0 0.1
2017-Jan-11 10:32N 36°08' W 005°25'0 0.0
2017-Jan-11 08:05N 36°08' W 005°24'0 0.1
2017-Jan-11 07:08N 36°08' W 005°24'0 0.0
2017-Jan-11 03:29N 36°08' W 005°24'0 0.0
2017-Jan-11 01:32N 36°08' W 005°24'0 0.0
2017-Jan-10 22:32N 36°08' W 005°24'0 0.0
2017-Jan-10 21:32N 36°08' W 005°24'0 0.0
2017-Jan-10 20:26N 36°08' W 005°24'0 0.0
2017-Jan-10 17:32N 36°08' W 005°24'0 0.0
2017-Jan-10 14:14N 36°08' W 005°24'0 0.0
2017-Jan-10 12:14N 36°08' W 005°24'0 0.0
2017-Jan-10 10:14N 36°08' W 005°24'0 0.0
2017-Jan-10 07:08N 36°08' W 005°24'  

Dump ship's entire track history